createdAt,value
2022-11-06T00:01:13.008Z,9.80
2022-11-06T00:03:40.055Z,9.70
2022-11-06T00:06:30.575Z,9.70
2022-11-06T00:09:00.122Z,9.70
2022-11-06T00:11:27.564Z,9.60
2022-11-06T00:13:54.504Z,9.60
2022-11-06T00:16:21.333Z,9.70
2022-11-06T00:18:48.684Z,9.70
2022-11-06T00:21:18.163Z,9.70
2022-11-06T00:23:45.665Z,9.70
2022-11-06T00:26:14.809Z,9.80
2022-11-06T00:28:41.496Z,9.80
2022-11-06T00:31:12.354Z,9.70
2022-11-06T00:33:39.484Z,9.70
2022-11-06T00:36:08.050Z,9.80
2022-11-06T00:38:34.787Z,9.80
2022-11-06T00:41:07.902Z,9.80
2022-11-06T00:43:35.768Z,9.80
2022-11-06T00:46:20.830Z,9.80
2022-11-06T00:48:48.022Z,9.80
2022-11-06T00:51:23.247Z,9.80
2022-11-06T00:53:57.740Z,9.80
2022-11-06T00:56:25.319Z,9.80
2022-11-06T00:58:52.578Z,9.80
2022-11-06T01:01:25.234Z,9.80
2022-11-06T01:04:03.868Z,9.80
2022-11-06T01:06:33.914Z,9.80
2022-11-06T01:09:00.990Z,9.80
2022-11-06T01:11:59.333Z,9.80
2022-11-06T01:14:23.898Z,9.80
2022-11-06T01:16:50.845Z,9.80
2022-11-06T01:19:19.001Z,9.70
2022-11-06T01:21:49.256Z,9.70
2022-11-06T01:24:22.665Z,9.70
2022-11-06T01:27:12.564Z,9.70
2022-11-06T01:29:37.428Z,9.70
2022-11-06T01:32:04.398Z,9.70
2022-11-06T01:34:30.982Z,9.70
2022-11-06T01:36:57.537Z,9.70
2022-11-06T01:39:24.112Z,9.60
2022-11-06T01:41:52.630Z,9.60
2022-11-06T01:44:43.169Z,9.60
2022-11-06T01:47:20.635Z,9.60
2022-11-06T01:49:47.684Z,9.60
2022-11-06T01:52:16.132Z,9.60
2022-11-06T01:54:46.572Z,9.60
2022-11-06T01:57:13.493Z,9.60
2022-11-06T01:59:43.793Z,9.60
2022-11-06T02:02:11.238Z,9.60
2022-11-06T02:04:42.812Z,9.50
2022-11-06T02:07:10.564Z,9.50
2022-11-06T02:09:37.187Z,9.50
2022-11-06T02:12:41.432Z,9.50
2022-11-06T02:15:08.191Z,9.50
2022-11-06T02:17:42.036Z,9.40
2022-11-06T02:20:40.557Z,9.40
2022-11-06T02:23:58.888Z,9.40
2022-11-06T02:26:50.010Z,9.40
2022-11-06T02:29:32.604Z,9.40
2022-11-06T02:32:01.856Z,9.40
2022-11-06T02:34:29.931Z,9.40
2022-11-06T02:37:04.128Z,9.40
2022-11-06T02:39:34.609Z,9.40
2022-11-06T02:42:03.016Z,9.40
2022-11-06T02:44:31.457Z,9.40
2022-11-06T02:47:02.818Z,9.40
2022-11-06T02:49:33.986Z,9.30
2022-11-06T02:52:11.302Z,9.30
2022-11-06T02:54:43.093Z,9.30
2022-11-06T02:57:15.911Z,9.30
2022-11-06T02:59:51.276Z,9.30
2022-11-06T03:02:23.336Z,9.30
2022-11-06T03:05:15.485Z,9.30
2022-11-06T03:07:53.343Z,9.20
2022-11-06T03:10:20.269Z,9.30
2022-11-06T03:12:55.061Z,9.20
2022-11-06T03:15:27.575Z,9.20
2022-11-06T03:18:15.496Z,9.20
2022-11-06T03:21:01.098Z,9.10
2022-11-06T03:23:35.719Z,9.10
2022-11-06T03:26:24.593Z,9.10
2022-11-06T03:28:59.229Z,9.10
2022-11-06T03:31:53.614Z,9.00
2022-11-06T03:34:28.731Z,9.00
2022-11-06T03:37:05.494Z,9.00
2022-11-06T03:39:39.523Z,9.00
2022-11-06T03:42:17.279Z,9.00
2022-11-06T03:44:49.748Z,8.90
2022-11-06T03:47:19.291Z,8.90
2022-11-06T03:49:59.271Z,8.90
2022-11-06T03:52:38.074Z,8.90
2022-11-06T03:55:08.326Z,8.90
2022-11-06T03:58:01.828Z,8.90
2022-11-06T04:00:28.505Z,8.80
2022-11-06T04:03:05.891Z,8.80
2022-11-06T04:05:46.867Z,8.80
2022-11-06T04:08:34.724Z,8.80
2022-11-06T04:11:22.624Z,8.80
2022-11-06T04:13:57.390Z,8.80
2022-11-06T04:16:26.353Z,8.80
2022-11-06T04:18:52.953Z,8.80
2022-11-06T04:21:25.941Z,8.80
2022-11-06T04:24:29.369Z,8.80
2022-11-06T04:27:30.909Z,8.70
2022-11-06T04:30:00.267Z,8.80
2022-11-06T04:32:35.723Z,8.70
2022-11-06T04:35:12.076Z,8.70
2022-11-06T04:38:04.420Z,8.70
2022-11-06T04:41:02.511Z,8.70
2022-11-06T04:44:07.193Z,8.70
2022-11-06T04:46:39.793Z,8.70
2022-11-06T04:49:07.753Z,8.60
2022-11-06T04:51:37.282Z,8.60
2022-11-06T04:54:06.972Z,8.60
2022-11-06T04:56:37.992Z,8.60
2022-11-06T04:59:13.945Z,8.60
2022-11-06T05:01:40.620Z,8.50
2022-11-06T05:04:07.277Z,8.50
2022-11-06T05:06:33.897Z,8.50
2022-11-06T05:09:01.154Z,8.50
2022-11-06T05:11:27.806Z,8.50
2022-11-06T05:13:54.599Z,8.50
2022-11-06T05:16:21.219Z,8.50
2022-11-06T05:18:47.860Z,8.50
2022-11-06T05:21:32.923Z,8.50
2022-11-06T05:23:59.497Z,8.50
2022-11-06T05:26:26.060Z,8.50
2022-11-06T05:28:52.716Z,8.50
2022-11-06T05:31:19.276Z,8.50
2022-11-06T05:33:45.845Z,8.50
2022-11-06T05:36:12.484Z,8.50
2022-11-06T05:38:39.196Z,8.50
2022-11-06T05:41:05.782Z,8.40
2022-11-06T05:43:32.406Z,8.40
2022-11-06T05:46:00.420Z,8.40
2022-11-06T05:48:28.253Z,8.30
2022-11-06T05:51:00.785Z,8.40
2022-11-06T05:53:27.395Z,8.40
2022-11-06T05:55:53.969Z,8.30
2022-11-06T05:58:20.543Z,8.30
2022-11-06T06:00:47.138Z,8.30
2022-11-06T06:03:13.763Z,8.30
2022-11-06T06:05:40.559Z,8.20
2022-11-06T06:08:07.169Z,8.20
2022-11-06T06:10:33.871Z,8.10
2022-11-06T06:13:00.439Z,8.10
2022-11-06T06:15:27.078Z,8.10
2022-11-06T06:17:53.663Z,8.00
2022-11-06T06:20:20.235Z,8.00
2022-11-06T06:22:54.106Z,8.00
2022-11-06T06:25:23.064Z,8.00
2022-11-06T06:27:50.488Z,7.90
2022-11-06T06:30:17.278Z,7.90
2022-11-06T06:32:44.192Z,7.90
2022-11-06T06:35:11.087Z,7.90
2022-11-06T06:37:37.904Z,7.90
2022-11-06T06:40:05.515Z,7.90
2022-11-06T06:42:32.556Z,7.90
2022-11-06T06:44:59.129Z,8.00
2022-11-06T06:47:25.697Z,8.00
2022-11-06T06:49:52.329Z,8.00
2022-11-06T06:52:21.119Z,8.00
2022-11-06T06:54:47.811Z,8.00
2022-11-06T06:57:14.387Z,8.00
2022-11-06T06:59:40.980Z,8.00
2022-11-06T07:02:09.414Z,8.00
2022-11-06T07:04:37.173Z,8.00
2022-11-06T07:07:03.820Z,8.00
2022-11-06T07:09:31.681Z,8.10
2022-11-06T07:11:59.040Z,8.10
2022-11-06T07:14:25.624Z,8.10
2022-11-06T07:16:53.849Z,8.10
2022-11-06T07:19:20.761Z,8.10
2022-11-06T07:21:47.363Z,8.10
2022-11-06T07:24:14.027Z,8.10
2022-11-06T07:26:40.628Z,8.00
2022-11-06T07:29:08.273Z,8.00
2022-11-06T07:31:35.077Z,8.00
2022-11-06T07:34:01.663Z,8.00
2022-11-06T07:36:28.383Z,8.00
2022-11-06T07:38:54.949Z,7.90
2022-11-06T07:41:21.551Z,7.90
2022-11-06T07:43:51.160Z,7.90
2022-11-06T07:46:17.721Z,7.80
2022-11-06T07:48:44.296Z,7.80
2022-11-06T07:51:13.790Z,7.80
2022-11-06T07:53:41.158Z,7.70
2022-11-06T07:56:08.673Z,7.70
2022-11-06T07:58:35.524Z,7.70
2022-11-06T08:01:02.547Z,7.70
2022-11-06T08:03:32.249Z,7.70
2022-11-06T08:05:59.409Z,7.70
2022-11-06T08:08:27.313Z,7.70
2022-11-06T08:10:54.940Z,7.80
2022-11-06T08:13:22.946Z,7.80
2022-11-06T08:15:49.808Z,7.80
2022-11-06T08:18:16.929Z,7.80
2022-11-06T08:20:43.841Z,7.80
2022-11-06T08:23:12.786Z,7.80
2022-11-06T08:25:39.754Z,7.90
2022-11-06T08:28:06.329Z,7.80
2022-11-06T08:30:33.092Z,7.80
2022-11-06T08:33:05.339Z,7.80
2022-11-06T08:35:32.051Z,7.70
2022-11-06T08:37:58.617Z,7.70
2022-11-06T08:40:30.587Z,7.70
2022-11-06T08:43:02.319Z,7.70
2022-11-06T08:45:29.375Z,7.60
2022-11-06T08:48:00.236Z,7.70
2022-11-06T08:50:26.883Z,7.70
2022-11-06T08:52:57.574Z,7.70
2022-11-06T08:55:24.217Z,7.80
2022-11-06T08:57:50.843Z,7.80
2022-11-06T09:00:17.612Z,7.80
2022-11-06T09:02:44.221Z,7.80
2022-11-06T09:05:10.825Z,7.90
2022-11-06T09:07:38.556Z,7.90
2022-11-06T09:10:05.752Z,7.90
2022-11-06T09:12:32.377Z,7.90
2022-11-06T09:14:59.018Z,7.90
2022-11-06T09:17:25.626Z,7.90
2022-11-06T09:19:52.706Z,7.90
2022-11-06T09:22:19.481Z,7.90
2022-11-06T09:25:02.470Z,7.90
2022-11-06T09:27:30.090Z,8.00
2022-11-06T09:29:56.699Z,8.00
2022-11-06T09:32:24.631Z,8.00
2022-11-06T09:34:51.278Z,8.00
2022-11-06T09:37:17.943Z,8.00
2022-11-06T09:39:44.656Z,8.10
2022-11-06T09:42:28.280Z,8.10
2022-11-06T09:45:08.692Z,8.10
2022-11-06T09:47:39.581Z,8.20
2022-11-06T09:50:12.350Z,8.20
2022-11-06T09:52:54.299Z,8.20
2022-11-06T09:55:33.421Z,8.20
2022-11-06T09:58:05.639Z,8.20
2022-11-06T10:00:32.754Z,8.20
2022-11-06T10:03:12.789Z,8.20
2022-11-06T10:05:41.473Z,8.20
2022-11-06T10:08:24.821Z,8.20
2022-11-06T10:11:16.354Z,8.20
2022-11-06T10:14:01.789Z,8.20
2022-11-06T10:16:37.932Z,8.10
2022-11-06T10:19:33.130Z,8.10
2022-11-06T10:22:16.391Z,8.10
2022-11-06T10:25:06.301Z,8.10
2022-11-06T10:27:41.692Z,8.20
2022-11-06T10:30:17.006Z,8.20
2022-11-06T10:32:49.775Z,8.20
2022-11-06T10:35:20.305Z,8.20
2022-11-06T10:37:54.649Z,8.20
2022-11-06T10:40:25.820Z,8.20
2022-11-06T10:43:07.041Z,8.20
2022-11-06T10:45:34.607Z,8.20
2022-11-06T10:48:22.865Z,8.10
2022-11-06T10:51:20.300Z,8.10
2022-11-06T10:54:01.900Z,8.20
2022-11-06T10:57:00.464Z,8.10
2022-11-06T10:59:27.729Z,8.20
2022-11-06T11:01:54.550Z,8.20
2022-11-06T11:04:21.226Z,8.20
2022-11-06T11:06:47.874Z,8.30
2022-11-06T11:09:30.671Z,8.20
2022-11-06T11:11:57.835Z,8.30
2022-11-06T11:14:31.723Z,8.20
2022-11-06T11:17:01.237Z,8.20
2022-11-06T11:19:41.059Z,8.20
2022-11-06T11:22:16.671Z,8.20
2022-11-06T11:25:03.846Z,8.20
2022-11-06T11:27:52.604Z,8.20
2022-11-06T11:30:22.715Z,8.20
2022-11-06T11:32:50.224Z,8.20
2022-11-06T11:35:23.906Z,8.20
2022-11-06T11:37:50.574Z,8.20
2022-11-06T11:40:36.826Z,8.30
2022-11-06T11:43:29.092Z,8.30
2022-11-06T11:46:04.840Z,8.30
2022-11-06T11:48:47.651Z,8.40
2022-11-06T11:51:41.814Z,8.40
2022-11-06T11:54:11.400Z,8.40
2022-11-06T11:57:07.301Z,8.40
2022-11-06T11:59:46.923Z,8.50
2022-11-06T12:02:26.776Z,8.50
2022-11-06T12:04:58.415Z,8.40
2022-11-06T12:07:29.369Z,8.40
2022-11-06T12:09:56.828Z,8.40
2022-11-06T12:12:36.336Z,8.50
2022-11-06T12:15:17.067Z,8.50
2022-11-06T12:17:45.556Z,8.40
2022-11-06T12:20:19.636Z,8.40
2022-11-06T12:22:50.575Z,8.40
2022-11-06T12:25:30.715Z,8.50
2022-11-06T12:28:02.489Z,8.50
2022-11-06T12:30:32.872Z,8.50
2022-11-06T12:33:16.006Z,8.50
2022-11-06T12:35:48.256Z,8.50
2022-11-06T12:38:38.242Z,8.50
2022-11-06T12:41:10.510Z,8.50
2022-11-06T12:43:39.853Z,8.60
2022-11-06T12:46:12.097Z,8.60
2022-11-06T12:49:17.363Z,8.60
2022-11-06T12:52:02.814Z,8.60
2022-11-06T12:54:32.133Z,8.60
2022-11-06T12:57:29.702Z,8.60
2022-11-06T13:00:20.874Z,8.60
2022-11-06T13:03:22.168Z,8.60
2022-11-06T13:06:13.660Z,8.60
2022-11-06T13:09:08.334Z,8.60
2022-11-06T13:11:58.130Z,8.60
2022-11-06T13:15:03.172Z,8.60
2022-11-06T13:17:44.072Z,8.70
2022-11-06T13:20:32.722Z,8.70
2022-11-06T13:23:14.165Z,8.70
2022-11-06T13:25:58.038Z,8.70
2022-11-06T13:28:44.720Z,8.70
2022-11-06T13:31:14.656Z,8.70
2022-11-06T13:33:54.302Z,8.70
2022-11-06T13:36:21.376Z,8.70
2022-11-06T13:39:02.913Z,8.70
2022-11-06T13:41:31.365Z,8.80
2022-11-06T13:44:07.207Z,8.70
2022-11-06T13:46:44.655Z,8.70
2022-11-06T13:49:34.051Z,8.70
2022-11-06T13:52:03.834Z,8.60
2022-11-06T13:55:01.349Z,8.60
2022-11-06T13:58:01.659Z,8.50
2022-11-06T14:01:12.002Z,8.60
2022-11-06T14:03:47.971Z,8.50
2022-11-06T14:06:20.148Z,8.50
2022-11-06T14:08:54.469Z,8.50
2022-11-06T14:11:34.195Z,8.50
2022-11-06T14:14:07.454Z,8.60
2022-11-06T14:16:37.431Z,8.60
2022-11-06T14:19:06.039Z,8.70
2022-11-06T14:21:49.097Z,8.70
2022-11-06T14:24:27.745Z,8.60
2022-11-06T14:26:54.481Z,8.60
2022-11-06T14:29:27.215Z,8.60
2022-11-06T14:32:02.535Z,8.60
2022-11-06T14:34:31.885Z,8.60
2022-11-06T14:36:58.683Z,8.60
2022-11-06T14:39:56.116Z,8.60
2022-11-06T14:42:52.394Z,8.50
2022-11-06T14:45:21.167Z,8.60
2022-11-06T14:47:52.658Z,8.60
2022-11-06T14:50:19.246Z,8.60
2022-11-06T14:52:52.394Z,8.60
2022-11-06T14:55:45.469Z,8.60
2022-11-06T14:58:17.951Z,8.60
2022-11-06T15:00:57.502Z,8.60
2022-11-06T15:03:42.677Z,8.70
2022-11-06T15:06:18.578Z,8.70
2022-11-06T15:08:50.707Z,8.70
2022-11-06T15:11:33.037Z,8.70
2022-11-06T15:14:02.199Z,8.80
2022-11-06T15:16:50.587Z,8.80
2022-11-06T15:19:21.484Z,8.80
2022-11-06T15:22:14.699Z,8.80
2022-11-06T15:25:16.558Z,8.80
2022-11-06T15:28:11.824Z,8.80
2022-11-06T15:30:45.626Z,8.80
2022-11-06T15:33:18.583Z,8.80
2022-11-06T15:35:47.613Z,8.80
2022-11-06T15:38:19.929Z,8.80
2022-11-06T15:40:48.266Z,8.80
2022-11-06T15:43:37.316Z,8.80
2022-11-06T15:46:19.477Z,8.80
2022-11-06T15:48:46.353Z,8.80
2022-11-06T15:51:28.272Z,8.80
2022-11-06T15:53:55.794Z,8.70
2022-11-06T15:56:31.190Z,8.70
2022-11-06T15:59:09.934Z,8.70
2022-11-06T16:01:37.076Z,8.70
2022-11-06T16:04:19.029Z,8.70
2022-11-06T16:06:47.535Z,8.70
2022-11-06T16:09:25.001Z,8.60
2022-11-06T16:11:52.919Z,8.70
2022-11-06T16:14:20.423Z,8.70
2022-11-06T16:16:50.227Z,8.70
2022-11-06T16:19:32.449Z,8.70
2022-11-06T16:22:20.754Z,8.70
2022-11-06T16:24:53.400Z,8.70
2022-11-06T16:27:24.657Z,8.70
2022-11-06T16:30:00.971Z,8.70
2022-11-06T16:32:31.809Z,8.80
2022-11-06T16:35:00.013Z,8.80
2022-11-06T16:37:29.757Z,8.80
2022-11-06T16:39:59.333Z,8.80
2022-11-06T16:42:35.848Z,8.80
2022-11-06T16:45:08.492Z,8.80
2022-11-06T16:47:35.115Z,8.80
2022-11-06T16:50:06.892Z,8.80
2022-11-06T16:52:40.504Z,8.80
2022-11-06T16:55:25.345Z,8.80
2022-11-06T16:57:59.038Z,8.70
2022-11-06T17:00:31.046Z,8.70
2022-11-06T17:03:05.404Z,8.70
2022-11-06T17:05:36.532Z,8.70
2022-11-06T17:08:18.244Z,8.70
2022-11-06T17:10:46.843Z,8.70
2022-11-06T17:13:28.058Z,8.70
2022-11-06T17:16:01.471Z,8.70
2022-11-06T17:18:31.547Z,8.70
2022-11-06T17:21:00.724Z,8.70
2022-11-06T17:23:29.129Z,8.70
2022-11-06T17:26:07.650Z,8.80
2022-11-06T17:28:34.287Z,8.80
2022-11-06T17:31:00.871Z,8.90
2022-11-06T17:33:27.487Z,8.80
2022-11-06T17:35:54.176Z,8.80
2022-11-06T17:38:20.813Z,8.80
2022-11-06T17:40:47.624Z,8.80
2022-11-06T17:43:14.521Z,8.80
2022-11-06T17:45:44.294Z,8.80
2022-11-06T17:48:10.899Z,8.80
2022-11-06T17:50:56.221Z,8.80
2022-11-06T17:53:22.854Z,8.80
2022-11-06T17:55:49.428Z,8.90
2022-11-06T17:58:16.234Z,8.90
2022-11-06T18:00:43.239Z,8.90
2022-11-06T18:03:17.954Z,8.90
2022-11-06T18:05:45.386Z,8.90
2022-11-06T18:08:13.729Z,8.90
2022-11-06T18:10:41.071Z,8.90
2022-11-06T18:13:07.763Z,8.90
2022-11-06T18:15:35.574Z,8.90
2022-11-06T18:18:02.417Z,8.80
2022-11-06T18:20:29.107Z,8.80
2022-11-06T18:22:55.682Z,8.80
2022-11-06T18:25:22.244Z,8.80
2022-11-06T18:27:48.831Z,8.80
2022-11-06T18:30:15.502Z,8.80
2022-11-06T18:32:42.150Z,8.80
2022-11-06T18:35:09.224Z,8.80
2022-11-06T18:37:35.842Z,8.70
2022-11-06T18:40:02.476Z,8.70
2022-11-06T18:42:29.125Z,8.70
2022-11-06T18:44:55.711Z,8.70
2022-11-06T18:47:22.359Z,8.60
2022-11-06T18:49:49.139Z,8.60
2022-11-06T18:52:32.518Z,8.60
2022-11-06T18:55:02.618Z,8.50
2022-11-06T18:57:29.887Z,8.50
2022-11-06T18:59:56.703Z,8.50
2022-11-06T19:02:23.627Z,8.60
2022-11-06T19:04:50.353Z,8.60
2022-11-06T19:07:17.076Z,8.50
2022-11-06T19:09:43.727Z,8.50
2022-11-06T19:12:10.370Z,8.50
2022-11-06T19:14:37.025Z,8.50
2022-11-06T19:17:03.630Z,8.50
2022-11-06T19:19:30.220Z,8.50
2022-11-06T19:21:56.860Z,8.50
2022-11-06T19:24:23.522Z,8.50
2022-11-06T19:26:50.285Z,8.50
2022-11-06T19:29:17.203Z,8.50
2022-11-06T19:31:43.876Z,8.50
2022-11-06T19:34:13.127Z,8.50
2022-11-06T19:36:39.823Z,8.50
2022-11-06T19:39:07.145Z,8.50
2022-11-06T19:41:34.015Z,8.50
2022-11-06T19:44:00.641Z,8.60
2022-11-06T19:46:33.994Z,8.60
2022-11-06T19:49:05.752Z,8.60
2022-11-06T19:51:33.399Z,8.60
2022-11-06T19:54:01.489Z,8.50
2022-11-06T19:56:28.229Z,8.50
2022-11-06T19:58:54.814Z,8.50
2022-11-06T20:01:21.697Z,8.50
2022-11-06T20:03:48.512Z,8.50
2022-11-06T20:06:15.286Z,8.50
2022-11-06T20:08:42.168Z,8.50
2022-11-06T20:11:14.554Z,8.50
2022-11-06T20:13:42.415Z,8.50
2022-11-06T20:16:20.038Z,8.50
2022-11-06T20:18:55.432Z,8.50
2022-11-06T20:21:23.332Z,8.50
2022-11-06T20:23:49.955Z,8.50
2022-11-06T20:26:16.800Z,8.50
2022-11-06T20:28:43.429Z,8.40
2022-11-06T20:31:11.548Z,8.40
2022-11-06T20:33:38.365Z,8.40
2022-11-06T20:36:10.168Z,8.40
2022-11-06T20:38:36.858Z,8.40
2022-11-06T20:41:03.588Z,8.40
2022-11-06T20:43:30.688Z,8.40
2022-11-06T20:46:01.614Z,8.40
2022-11-06T20:48:28.408Z,8.40
2022-11-06T20:50:59.972Z,8.40
2022-11-06T20:53:30.484Z,8.40
2022-11-06T20:55:58.662Z,8.40
2022-11-06T20:58:26.535Z,8.40
2022-11-06T21:01:04.313Z,8.40
2022-11-06T21:03:31.538Z,8.40
2022-11-06T21:05:58.777Z,8.30
2022-11-06T21:08:26.019Z,8.30
2022-11-06T21:11:00.794Z,8.30
2022-11-06T21:13:32.581Z,8.30
2022-11-06T21:16:01.289Z,8.30
2022-11-06T21:18:28.533Z,8.30
2022-11-06T21:20:55.471Z,8.30
2022-11-06T21:23:22.623Z,8.30
2022-11-06T21:25:49.454Z,8.40
2022-11-06T21:28:16.145Z,8.40
2022-11-06T21:30:47.190Z,8.40
2022-11-06T21:33:15.156Z,8.40
2022-11-06T21:35:42.105Z,8.40
2022-11-06T21:38:08.827Z,8.40
2022-11-06T21:40:38.188Z,8.40
2022-11-06T21:43:04.875Z,8.50
2022-11-06T21:45:31.775Z,8.50
2022-11-06T21:47:58.379Z,8.50
2022-11-06T21:50:29.888Z,8.50
2022-11-06T21:53:15.595Z,8.50
2022-11-06T21:56:00.624Z,8.50
2022-11-06T21:58:27.333Z,8.50
2022-11-06T22:00:54.092Z,8.50
2022-11-06T22:03:20.830Z,8.50
2022-11-06T22:05:47.487Z,8.50
2022-11-06T22:08:14.321Z,8.50
2022-11-06T22:10:41.282Z,8.50
2022-11-06T22:13:07.991Z,8.60
2022-11-06T22:15:34.669Z,8.60
2022-11-06T22:18:02.803Z,8.60
2022-11-06T22:20:29.390Z,8.60
2022-11-06T22:22:55.957Z,8.60
2022-11-06T22:25:22.536Z,8.60
2022-11-06T22:27:49.157Z,8.60
2022-11-06T22:30:15.747Z,8.60
2022-11-06T22:32:42.682Z,8.60
2022-11-06T22:35:09.733Z,8.60
2022-11-06T22:37:36.315Z,8.60
2022-11-06T22:40:03.013Z,8.70
2022-11-06T22:42:29.669Z,8.70
2022-11-06T22:44:56.262Z,8.70
2022-11-06T22:47:22.927Z,8.70
2022-11-06T22:49:51.103Z,8.70
2022-11-06T22:52:17.721Z,8.70
2022-11-06T22:54:44.442Z,8.70
2022-11-06T22:57:11.236Z,8.70
2022-11-06T22:59:37.802Z,8.70
2022-11-06T23:02:04.424Z,8.60
2022-11-06T23:04:31.042Z,8.60
2022-11-06T23:06:57.658Z,8.60
2022-11-06T23:09:24.328Z,8.60
2022-11-06T23:11:50.938Z,8.50
2022-11-06T23:14:17.531Z,8.60
2022-11-06T23:17:00.701Z,8.60
2022-11-06T23:19:29.823Z,8.60
2022-11-06T23:22:16.519Z,8.50
2022-11-06T23:24:44.055Z,8.60
2022-11-06T23:27:12.146Z,8.60
2022-11-06T23:29:39.051Z,8.60
2022-11-06T23:32:06.455Z,8.60
2022-11-06T23:34:33.195Z,8.60
2022-11-06T23:36:59.842Z,8.60
2022-11-06T23:39:26.474Z,8.60
2022-11-06T23:41:53.057Z,8.60
2022-11-06T23:44:38.202Z,8.60
2022-11-06T23:47:04.849Z,8.60
2022-11-06T23:49:31.500Z,8.60
2022-11-06T23:51:58.380Z,8.60
2022-11-06T23:54:25.600Z,8.60
2022-11-06T23:56:52.201Z,8.60
2022-11-06T23:59:18.957Z,8.70
